Time;durP1;ratioP1;P1;durP2;ratioP2;P2;SDS_P1;SDS_P2;PMS_P1;PMS_P2;Temp;Humidity;BMP_temperature;BMP_pressure;BME280_temperature;BME280_humidity;BME280_pressure;Samples;Min_cycle;Max_cycle;Signal;HPM_P1;HPM_P2
2023/02/08 00:01:56;;;;;;;;;26.25;26.25;;;;;6.04;53.10;102862.09;6271120;22;45543;-74
2023/02/08 00:04:21;;;;;;;;;24.75;22.75;;;;;6.06;52.74;102868.09;6271377;22;45541;-75
2023/02/08 00:06:47;;;;;;;;;26.75;19.50;;;;;6.05;52.72;102868.97;6271429;22;46371;-75
2023/02/08 00:09:12;;;;;;;;;26.00;21.25;;;;;5.95;52.96;102847.47;6272005;22;45535;-74
2023/02/08 00:14:59;;;;;;;;;18.75;18.25;;;;;5.99;52.79;102846.56;6266099;22;45668;-74
2023/02/08 00:17:25;;;;;;;;;18.75;17.75;;;;;6.01;52.87;102857.78;6271082;22;47195;-77
2023/02/08 00:19:50;;;;;;;;;20.00;18.75;;;;;6.00;53.04;102850.84;6271654;22;45540;-75
2023/02/08 00:22:16;;;;;;;;;24.00;18.75;;;;;6.00;52.63;102848.25;6272007;22;45440;-76
2023/02/08 00:24:41;;;;;;;;;24.50;20.00;;;;;5.88;52.66;102835.47;6272087;22;45425;-73
2023/02/08 00:30:28;;;;;;;;;20.00;15.75;;;;;5.97;52.47;102845.72;6271758;22;45665;-76
2023/02/08 00:32:53;;;;;;;;;20.00;19.25;;;;;5.97;52.67;102837.91;6271979;22;45481;-75
2023/02/08 00:35:18;;;;;;;;;20.25;15.00;;;;;5.95;52.16;102838.78;6271967;22;45936;-74
2023/02/08 00:37:44;;;;;;;;;23.00;19.75;;;;;5.85;51.82;102825.91;6271654;22;45577;-74
2023/02/08 00:40:10;;;;;;;;;21.75;17.00;;;;;5.87;52.40;102832.00;6271205;22;46120;-77
2023/02/08 00:42:35;;;;;;;;;21.75;17.00;;;;;5.86;52.65;102826.78;6270969;22;45902;-75
2023/02/08 00:45:01;;;;;;;;;17.50;15.00;;;;;5.90;52.19;102826.72;6272433;22;45410;-76
2023/02/08 00:47:26;;;;;;;;;19.25;17.75;;;;;5.90;52.28;102824.13;6272019;22;46118;-78
2023/02/08 00:49:51;;;;;;;;;17.50;15.50;;;;;5.89;52.21;102827.59;6272210;22;47009;-78
2023/02/08 00:52:17;;;;;;;;;21.50;18.25;;;;;5.90;52.13;102833.66;6271728;22;45543;-76
2023/02/08 00:54:43;;;;;;;;;32.75;23.00;;;;;5.87;52.31;102828.53;6272339;22;45706;-75
2023/02/08 01:00:30;;;;;;;;;22.50;18.50;;;;;5.89;52.06;102832.81;6272057;22;45707;-76
2023/02/08 01:02:55;;;;;;;;;22.75;18.75;;;;;5.79;52.08;102813.00;6273369;22;45583;-75
2023/02/08 01:05:21;;;;;;;;;24.75;20.75;;;;;5.88;52.11;102838.88;6274688;22;45433;-75
2023/02/08 01:07:46;;;;;;;;;23.00;20.75;;;;;5.87;52.52;102837.19;6271492;22;47095;-75
2023/02/08 01:10:11;;;;;;;;;21.25;18.75;;;;;5.63;52.91;102795.91;6271727;22;45551;-75
2023/02/08 01:16:14;;;;;;;;;26.50;21.50;;;;;5.85;52.72;102832.84;6266792;22;45664;-75
2023/02/08 01:18:42;;;;;;;;;25.25;21.50;;;;;5.83;52.58;102835.47;6271073;22;46770;-77
2023/02/08 01:21:10;;;;;;;;;26.75;23.75;;;;;5.82;53.15;102832.91;6271526;22;46000;-74
2023/02/08 01:23:36;;;;;;;;;26.75;24.50;;;;;5.74;52.64;102825.22;6271200;22;45809;-75
2023/02/08 01:26:02;;;;;;;;;28.25;23.25;;;;;5.77;53.24;102840.78;6272109;22;45629;-76
2023/02/08 01:28:27;;;;;;;;;26.25;24.75;;;;;5.75;52.83;102837.34;6271088;22;46434;-76
2023/02/08 01:30:52;;;;;;;;;28.50;24.75;;;;;5.73;53.07;102843.44;6271818;22;45993;-75
2023/02/08 01:33:17;;;;;;;;;27.75;25.25;;;;;5.71;53.20;102843.47;6220182;22;45671;-76
2023/02/08 01:35:43;;;;;;;;;25.00;16.50;;;;;5.66;52.86;102844.44;6274095;22;45397;-76
2023/02/08 01:38:08;;;;;;;;;27.00;22.00;;;;;5.62;52.97;102841.00;6273624;22;45377;-76
2023/02/08 01:40:33;;;;;;;;;26.75;25.00;;;;;5.61;53.16;102849.72;6271950;22;47216;-76
2023/02/08 01:46:21;;;;;;;;;25.25;16.75;;;;;5.59;53.42;102853.19;6271583;22;45461;-76
2023/02/08 01:48:47;;;;;;;;;19.00;15.50;;;;;5.57;53.21;102852.34;6270692;22;47476;-76
2023/02/08 01:51:19;;;;;;;;;29.75;24.25;;;;;5.45;53.33;102835.22;6270530;22;47161;-75
2023/02/08 01:53:46;;;;;;;;;23.00;21.50;;;;;5.53;53.47;102851.53;6270417;22;45519;-76
2023/02/08 02:02:43;;;;;;;;;21.50;21.50;;;;;5.42;53.27;102843.88;6270978;22;45567;-77
2023/02/08 02:05:08;;;;;;;;;24.75;20.00;;;;;5.42;52.88;102846.50;6270842;22;45920;-76
2023/02/08 02:07:35;;;;;;;;;20.25;18.50;;;;;5.39;53.08;102848.28;6270715;22;45608;-75
2023/02/08 02:10:25;;;;;;;;;17.75;15.00;;;;;5.37;53.47;102845.69;6271232;22;46584;-74
2023/02/08 02:12:51;;;;;;;;;9.50;7.25;;;;;5.30;53.46;102833.66;6271172;22;46482;-76
2023/02/08 02:15:17;;;;;;;;;24.25;20.25;;;;;5.33;53.14;102840.56;6271285;22;45862;-76
2023/02/08 02:17:43;;;;;;;;;21.25;19.75;;;;;5.32;52.91;102838.84;6270644;22;45463;-76
2023/02/08 02:20:29;;;;;;;;;11.50;9.00;;;;;5.29;53.01;102831.09;6271398;22;46113;-76
2023/02/08 02:23:16;;;;;;;;;25.50;21.25;;;;;5.27;52.87;102835.44;6270512;22;46111;-77
2023/02/08 02:26:18;;;;;;;;;21.25;20.50;;;;;5.23;53.38;102824.25;6271004;22;45583;-77
2023/02/08 02:29:02;;;;;;;;;25.75;21.25;;;;;5.21;53.10;102819.94;6272128;22;45541;-76
2023/02/08 02:31:50;;;;;;;;;21.50;17.50;;;;;5.20;53.56;102813.00;6244456;22;47185;-76
2023/02/08 02:34:30;;;;;;;;;27.50;20.00;;;;;5.18;53.60;102815.66;6272560;22;47411;-75
2023/02/08 02:37:05;;;;;;;;;31.25;23.00;;;;;5.17;53.47;102813.94;6273734;22;45477;-75
2023/02/08 02:39:58;;;;;;;;;23.50;20.00;;;;;5.13;53.31;102806.19;6272483;22;45691;-75
2023/02/08 02:45:50;;;;;;;;;21.25;19.75;;;;;5.05;53.68;102806.28;6272373;22;45523;-75
2023/02/08 02:48:31;;;;;;;;;20.25;18.25;;;;;5.01;53.48;102799.41;6271656;22;45807;-74
2023/02/08 02:51:07;;;;;;;;;22.75;18.75;;;;;4.95;53.54;102789.09;6271622;22;45900;-74
2023/02/08 02:53:35;;;;;;;;;23.50;20.50;;;;;4.95;53.41;102786.50;6272988;22;46290;-75
2023/02/08 02:56:11;;;;;;;;;30.50;23.25;;;;;4.90;53.75;102788.31;6273410;22;46330;-76
2023/02/08 03:01:58;;;;;;;;;28.75;23.25;;;;;4.82;53.40;102792.72;6272879;22;45539;-77
2023/02/08 03:04:32;;;;;;;;;22.25;18.00;;;;;4.78;53.39;102789.31;6272864;22;45595;-75
2023/02/08 03:07:20;;;;;;;;;25.75;20.25;;;;;4.73;53.66;102792.84;6272651;22;46231;-75
2023/02/08 03:09:51;;;;;;;;;25.00;20.50;;;;;4.69;54.05;102780.78;6273406;22;45682;-76
2023/02/08 03:16:48;;;;;;;;;16.00;14.75;;;;;4.61;53.86;102776.53;6267018;22;45542;-76
2023/02/08 03:19:38;;;;;;;;;25.75;23.50;;;;;4.59;54.01;102782.59;6213485;22;47435;-74
2023/02/08 03:22:25;;;;;;;;;22.75;21.25;;;;;4.56;53.97;102778.31;6241948;22;45728;-75
2023/02/08 03:24:56;;;;;;;;;23.00;20.00;;;;;4.50;54.24;102780.97;6242787;22;45728;-75
2023/02/08 03:34:05;;;;;;;;;28.75;19.75;;;;;4.49;54.23;102787.03;6241806;22;45536;-76
2023/02/08 03:36:40;;;;;;;;;17.00;12.50;;;;;4.43;54.35;102774.13;6214163;22;45672;-76
2023/02/08 03:39:11;;;;;;;;;27.25;21.25;;;;;4.44;54.48;102775.84;6241541;22;45579;-76
2023/02/08 03:41:41;;;;;;;;;20.75;17.00;;;;;4.34;54.51;102766.44;6241151;22;46130;-75
2023/02/08 03:44:36;;;;;;;;;28.00;22.00;;;;;4.40;54.22;102776.75;6241567;22;45563;-75
2023/02/08 03:47:23;;;;;;;;;26.75;21.25;;;;;4.39;54.24;102785.41;6228966;22;45998;-76
2023/02/08 03:49:52;;;;;;;;;27.75;22.75;;;;;4.23;54.36;102765.69;6241481;22;45530;-76
2023/02/08 03:52:18;;;;;;;;;23.25;21.25;;;;;4.33;54.79;102782.88;6213461;22;48068;-73
2023/02/08 03:54:50;;;;;;;;;27.25;23.75;;;;;4.31;54.67;102787.25;6240720;22;45587;-75
2023/02/08 03:57:23;;;;;;;;;25.75;22.25;;;;;4.29;55.04;102794.16;6241648;22;45664;-74
2023/02/08 03:59:56;;;;;;;;;24.75;20.50;;;;;4.26;54.84;102786.44;6240274;22;46588;-76
2023/02/08 04:02:27;;;;;;;;;25.50;20.75;;;;;4.20;54.90;102783.91;6213355;22;47407;-77
2023/02/08 04:04:55;;;;;;;;;35.25;26.75;;;;;4.25;54.87;102786.44;6240692;22;45558;-75
2023/02/08 04:07:21;;;;;;;;;25.00;18.75;;;;;4.24;55.03;102793.34;6240702;22;45413;-77
2023/02/08 04:09:46;;;;;;;;;25.50;23.25;;;;;4.25;54.99;102799.41;6240446;22;46437;-77
2023/02/08 04:12:13;;;;;;;;;25.00;20.50;;;;;4.12;54.76;102763.22;6213173;22;46279;-75
2023/02/08 04:14:38;;;;;;;;;24.75;21.00;;;;;4.21;54.81;102786.44;6240947;22;45844;-74
2023/02/08 04:17:03;;;;;;;;;25.75;22.50;;;;;4.21;55.01;102785.63;6244232;22;45523;-76
2023/02/08 04:19:29;;;;;;;;;27.50;21.75;;;;;4.12;54.69;102776.19;6272284;22;45541;-76
2023/02/08 04:21:54;;;;;;;;;23.75;21.00;;;;;4.06;54.82;102767.59;6271401;22;47092;-73
2023/02/08 04:24:20;;;;;;;;;27.50;23.00;;;;;4.11;55.24;102779.63;6272171;22;45369;-75
2023/02/08 04:26:46;;;;;;;;;26.25;20.00;;;;;4.04;54.93;102767.63;6272261;22;45389;-76
2023/02/08 04:29:11;;;;;;;;;18.25;10.00;;;;;4.08;55.20;102776.22;6272786;22;46608;-79
2023/02/08 04:31:36;;;;;;;;;26.50;23.50;;;;;4.11;55.31;102781.38;6272703;22;46024;-76
2023/02/08 04:34:02;;;;;;;;;26.50;23.75;;;;;4.09;55.31;102773.63;6271978;22;45593;-76
2023/02/08 04:36:27;;;;;;;;;24.75;21.00;;;;;4.08;55.06;102771.03;6272223;22;45511;-77
2023/02/08 04:38:53;;;;;;;;;28.00;24.00;;;;;4.04;55.17;102759.84;6272588;22;45742;-75
2023/02/08 04:41:18;;;;;;;;;30.25;23.25;;;;;4.07;55.25;102756.34;6271747;22;47104;-76
2023/02/08 04:43:43;;;;;;;;;27.50;23.00;;;;;3.94;55.22;102737.44;6271055;22;45701;-74
2023/02/08 04:49:30;;;;;;;;;26.25;22.00;;;;;4.04;55.07;102752.06;6272061;22;45907;-75
2023/02/08 04:51:56;;;;;;;;;25.75;20.75;;;;;4.04;55.23;102749.47;6272111;22;46232;-74
2023/02/08 04:54:21;;;;;;;;;29.75;23.75;;;;;4.02;55.23;102751.22;6271988;22;45661;-77
2023/02/08 04:56:47;;;;;;;;;28.00;22.75;;;;;4.01;55.50;102748.63;6271656;22;45787;-76
2023/02/08 04:59:12;;;;;;;;;28.75;26.25;;;;;3.94;55.46;102742.63;6271288;22;47794;-77
2023/02/08 05:01:38;;;;;;;;;23.00;15.00;;;;;3.94;55.27;102741.78;6270905;22;47381;-76
2023/02/08 05:04:03;;;;;;;;;28.75;23.00;;;;;3.97;55.67;102747.81;6271271;22;45637;-76
2023/02/08 05:06:28;;;;;;;;;25.75;22.75;;;;;3.94;55.57;102746.97;6271394;22;45509;-75
2023/02/08 05:08:54;;;;;;;;;28.25;22.00;;;;;3.87;55.55;102737.53;6243709;22;47664;-76
2023/02/08 05:11:21;;;;;;;;;28.50;24.25;;;;;3.89;55.49;102741.81;6273696;22;46005;-77
2023/02/08 05:13:47;;;;;;;;;27.75;23.50;;;;;3.92;55.60;102751.31;6273386;22;45521;-77
2023/02/08 05:19:33;;;;;;;;;31.50;25.50;;;;;3.78;55.39;102736.72;6266530;22;45872;-75
2023/02/08 05:21:59;;;;;;;;;30.25;27.00;;;;;3.84;55.54;102742.72;6246002;22;45598;-77
2023/02/08 05:24:24;;;;;;;;;26.00;23.00;;;;;3.84;55.32;102740.13;6272427;22;45612;-76
2023/02/08 05:26:50;;;;;;;;;19.50;18.25;;;;;3.66;55.19;102718.72;6243400;22;45537;-76
2023/02/08 05:29:15;;;;;;;;;29.25;23.00;;;;;3.72;54.81;102733.34;6271114;22;46686;-76
2023/02/08 05:35:02;;;;;;;;;37.75;26.25;;;;;3.78;55.08;102747.09;6271564;22;45558;-77
2023/02/08 05:37:28;;;;;;;;;30.50;23.25;;;;;3.79;54.92;102754.00;6271796;22;45522;-76
2023/02/08 05:39:53;;;;;;;;;24.50;23.00;;;;;3.79;54.84;102748.81;6270627;22;46235;-75
2023/02/08 05:42:19;;;;;;;;;25.50;22.00;;;;;3.78;54.89;102741.91;6270920;22;46018;-76
2023/02/08 05:44:44;;;;;;;;;28.00;26.00;;;;;3.79;54.78;102754.00;6271209;22;45687;-75
2023/02/08 05:50:31;;;;;;;;;26.25;23.25;;;;;3.76;55.14;102748.00;6271298;22;45627;-75
2023/02/08 05:52:56;;;;;;;;;29.75;26.75;;;;;3.68;54.95;102737.69;6270589;22;46116;-75
2023/02/08 05:55:21;;;;;;;;;25.25;19.75;;;;;3.73;54.99;102748.88;6270932;22;45623;-76
2023/02/08 05:57:47;;;;;;;;;33.00;23.00;;;;;3.67;55.21;102742.91;6271945;22;45555;-78
2023/02/08 06:00:13;;;;;;;;;26.00;23.25;;;;;3.67;55.16;102754.09;6271603;22;46381;-76
2023/02/08 06:02:38;;;;;;;;;28.25;23.00;;;;;3.64;55.14;102742.91;6269938;22;46133;-76
2023/02/08 06:05:04;;;;;;;;;32.00;26.33;;;;;3.63;55.06;102754.13;6271456;22;45685;-75
2023/02/08 06:07:29;;;;;;;;;17.00;12.50;;;;;3.57;54.62;102746.41;6270946;22;45543;-76
2023/02/08 06:09:55;;;;;;;;;23.00;19.75;;;;;3.52;54.99;102745.59;6244414;22;47235;-77
2023/02/08 06:12:20;;;;;;;;;35.50;27.00;;;;;3.53;55.15;102742.13;6270537;22;45929;-76
2023/02/08 06:14:46;;;;;;;;;21.25;17.75;;;;;3.46;55.32;102738.72;6270885;22;45583;-76
2023/02/08 06:20:33;;;;;;;;;27.50;22.75;;;;;3.37;55.33;102736.19;6265607;22;45711;-76
2023/02/08 06:22:58;;;;;;;;;26.50;22.75;;;;;3.37;55.39;102743.97;6271313;22;46102;-76
2023/02/08 06:25:24;;;;;;;;;24.50;22.00;;;;;3.30;55.62;102740.56;6271482;22;45504;-77
2023/02/08 06:27:49;;;;;;;;;27.50;21.75;;;;;3.38;55.57;102762.09;6271387;22;45463;-77
2023/02/08 06:30:14;;;;;;;;;26.25;24.00;;;;;3.35;55.26;102766.41;6270925;22;46468;-78
2023/02/08 06:36:02;;;;;;;;;30.00;25.50;;;;;3.37;55.44;102772.47;6271759;22;45718;-77
2023/02/08 06:38:27;;;;;;;;;33.25;28.75;;;;;3.34;55.36;102775.94;6244115;22;45634;-76
2023/02/08 06:40:52;;;;;;;;;30.00;25.00;;;;;3.33;55.31;102766.47;6272355;22;45584;-76
2023/02/08 06:43:18;;;;;;;;;28.75;23.75;;;;;3.31;55.31;102767.31;6272114;22;46192;-75
2023/02/08 06:52:10;;;;;;;;;28.75;23.25;;;;;3.28;55.37;102776.00;6270728;22;46093;-77
2023/02/08 06:54:35;;;;;;;;;25.75;23.00;;;;;3.27;55.02;102763.03;6243896;22;48277;-76
2023/02/08 06:57:01;;;;;;;;;26.25;25.50;;;;;3.29;55.21;102764.72;6270494;22;45673;-76
2023/02/08 06:59:26;;;;;;;;;32.00;28.25;;;;;3.27;55.02;102765.63;6243333;22;45825;-77
2023/02/08 07:01:52;;;;;;;;;31.00;25.50;;;;;3.24;55.06;102755.31;6270378;22;46228;-77
2023/02/08 07:04:17;;;;;;;;;29.25;26.50;;;;;3.33;54.96;102776.81;6271314;22;45888;-76
2023/02/08 07:06:42;;;;;;;;;33.25;30.25;;;;;3.34;55.08;102773.38;6243343;22;45700;-74
2023/02/08 07:09:08;;;;;;;;;35.50;28.25;;;;;3.35;55.00;102779.38;6272399;22;45503;-75
2023/02/08 07:11:33;;;;;;;;;30.50;26.00;;;;;3.34;54.78;102777.69;6273752;22;46398;-77
2023/02/08 07:13:58;;;;;;;;;25.25;23.00;;;;;3.34;54.70;102783.72;6274910;22;46240;-78
2023/02/08 07:16:24;;;;;;;;;29.50;26.25;;;;;3.31;54.68;102778.53;6273154;22;45725;-78
2023/02/08 07:18:49;;;;;;;;;26.50;23.50;;;;;3.33;54.81;102770.78;6275557;22;45631;-76
2023/02/08 07:21:15;;;;;;;;;30.75;29.00;;;;;3.34;54.63;102773.38;6277550;22;45560;-85
2023/02/08 07:23:40;;;;;;;;;30.75;28.50;;;;;3.32;54.41;102769.91;6278526;22;45920;-79
2023/02/08 07:26:09;;;;;;;;;29.75;25.00;;;;;3.19;54.21;102752.72;6280963;22;45601;-79
2023/02/08 07:28:35;;;;;;;;;27.00;22.00;;;;;3.32;54.07;102769.91;6282174;22;45221;-74
2023/02/08 07:31:06;;;;;;;;;27.75;25.75;;;;;3.33;54.44;102771.63;6279557;22;45576;-78
2023/02/08 07:36:53;;;;;;;;;27.50;23.50;;;;;3.35;54.36;102763.84;6273608;22;45544;-80
2023/02/08 07:39:18;;;;;;;;;38.00;28.00;;;;;3.33;54.21;102763.88;6273804;22;45635;-77
2023/02/08 07:41:44;;;;;;;;;35.00;27.75;;;;;3.38;53.98;102771.59;6272735;22;47605;-80
2023/02/08 07:44:09;;;;;;;;;30.50;23.50;;;;;3.34;53.81;102764.72;6272015;22;46016;-77
2023/02/08 07:46:34;;;;;;;;;31.25;24.50;;;;;3.37;53.75;102769.88;6272319;22;45733;-79
2023/02/08 07:49:00;;;;;;;;;33.25;23.25;;;;;3.32;54.10;102758.69;6272087;22;45720;-79
2023/02/08 07:51:25;;;;;;;;;29.75;24.50;;;;;3.37;54.18;102765.56;6272251;22;46433;-81
2023/02/08 07:53:51;;;;;;;;;35.75;27.75;;;;;3.34;54.04;102762.13;6272808;22;46284;-78
2023/02/08 07:56:16;;;;;;;;;30.00;28.50;;;;;3.38;54.17;102761.25;6271654;22;45615;-75
2023/02/08 07:58:42;;;;;;;;;33.50;25.50;;;;;3.42;54.17;102769.84;6272615;22;45500;-81
2023/02/08 08:01:07;;;;;;;;;27.50;27.00;;;;;3.39;54.07;102755.19;6272322;22;46389;-82
2023/02/08 08:06:54;;;;;;;;;33.00;29.00;;;;;3.44;53.93;102755.16;6273123;22;45690;-85
2023/02/08 08:09:23;;;;;;;;;28.75;25.00;;;;;3.46;53.83;102753.41;6273933;22;45515;-80
2023/02/08 08:11:48;;;;;;;;;30.25;28.75;;;;;3.43;53.71;102743.94;6274601;22;45424;-75
2023/02/08 08:14:13;;;;;;;;;25.75;23.25;;;;;3.56;53.73;102758.53;6275855;22;46009;-84
2023/02/08 08:16:39;;;;;;;;;27.50;24.75;;;;;3.56;53.43;102749.88;6277385;22;45522;-83
2023/02/08 08:22:39;;;;;;;;;32.50;26.00;;;;;3.61;53.47;102767.13;6274682;22;46078;-81
2023/02/08 08:25:05;;;;;;;;;28.25;27.00;;;;;3.63;53.09;102749.81;6280587;22;46243;-80
2023/02/08 08:27:30;;;;;;;;;27.00;23.50;;;;;3.65;53.05;102755.84;6282166;22;45406;-80
2023/02/08 08:29:56;;;;;;;;;26.00;21.75;;;;;3.62;52.88;102744.63;6281100;22;45928;-80
2023/02/08 08:36:33;;;;;;;;;27.25;23.75;;;;;3.71;52.53;102749.75;6283294;22;46090;-79
2023/02/08 08:38:58;;;;;;;;;28.00;20.75;;;;;3.72;52.58;102748.91;6251957;22;45972;-83
2023/02/08 08:41:26;;;;;;;;;32.25;23.00;;;;;3.71;52.10;102739.41;6278809;22;45615;-82
2023/02/08 08:43:51;;;;;;;;;27.00;22.75;;;;;3.69;52.40;102735.94;6250634;22;46593;-86
2023/02/08 08:46:17;;;;;;;;;30.25;24.25;;;;;3.76;52.05;102737.63;6278823;22;47131;-86
2023/02/08 08:52:06;;;;;;;;;34.25;29.50;;;;;3.80;51.99;102731.53;6279641;22;45417;-85
2023/02/08 08:54:32;;;;;;;;;29.25;26.25;;;;;3.77;52.18;102732.44;6276783;22;47137;-80
2023/02/08 08:56:57;;;;;;;;;24.25;22.00;;;;;3.87;51.63;102733.22;6276520;22;45624;-74
2023/02/08 08:59:23;;;;;;;;;33.75;29.00;;;;;3.90;51.68;102732.31;6277079;22;45582;-78
2023/02/08 09:01:49;;;;;;;;;28.50;26.00;;;;;3.93;51.31;102737.47;6281557;22;45527;-80
2023/02/08 09:07:36;;;;;;;;;36.50;30.25;;;;;3.95;51.22;102720.16;6274009;22;46136;-80
2023/02/08 09:10:02;;;;;;;;;24.75;22.50;;;;;3.99;51.12;102717.53;6279950;22;45614;-79
2023/02/08 09:12:28;;;;;;;;;29.50;23.50;;;;;3.98;51.61;102714.94;6277276;22;45517;-83
2023/02/08 09:14:53;;;;;;;;;27.00;23.00;;;;;4.07;51.05;102722.63;6279263;22;47608;-74
2023/02/08 09:17:19;;;;;;;;;26.33;23.00;;;;;4.09;51.28;102713.97;6278745;22;45887;-74
2023/02/08 09:23:07;;;;;;;;;12.50;10.00;;;;;4.16;50.95;102710.41;6275211;22;45845;-81
2023/02/08 09:25:32;;;;;;;;;32.75;29.25;;;;;4.19;50.74;102715.59;6278504;22;47461;-79
2023/02/08 09:27:58;;;;;;;;;26.75;23.25;;;;;4.22;50.89;102702.56;6277892;22;45952;-86
2023/02/08 09:30:23;;;;;;;;;29.50;25.25;;;;;4.25;50.61;102706.88;6279154;22;45499;-77
2023/02/08 09:32:48;;;;;;;;;34.50;27.50;;;;;4.28;50.37;102706.84;6281677;22;45523;-78
2023/02/08 09:35:14;;;;;;;;;32.75;26.25;;;;;4.30;50.53;102706.81;6280268;22;46584;-82
2023/02/08 09:37:39;;;;;;;;;27.75;22.00;;;;;4.35;50.21;102705.03;6280026;22;45540;-84
2023/02/08 09:40:05;;;;;;;;;33.75;27.00;;;;;4.35;50.06;102692.06;6281938;22;45527;-81
2023/02/08 09:42:42;;;;;;;;;29.00;25.75;;;;;4.36;50.55;102686.00;6281741;22;45606;-78
2023/02/08 09:46:04;;;;;;;;;33.00;23.75;;;;;4.38;50.36;102686.81;6279471;22;46803;-83
2023/02/08 09:48:44;;;;;;;;;25.00;23.00;;;;;4.36;49.89;102683.41;6155153;23;46705;-84
2023/02/08 09:51:38;;;;;;;;;26.25;24.50;;;;;4.48;50.46;102691.06;6107019;23;45575;-82
2023/02/08 09:54:16;;;;;;;;;27.25;24.00;;;;;4.42;50.35;102672.97;6134954;23;45717;-84
2023/02/08 09:56:46;;;;;;;;;27.75;24.00;;;;;4.57;49.91;102684.00;6129523;23;46369;-79
2023/02/08 09:59:28;;;;;;;;;33.25;29.00;;;;;4.62;50.00;102681.34;6152244;23;46325;-86
2023/02/08 10:02:20;;;;;;;;;32.75;27.00;;;;;4.65;50.38;102692.53;6151903;23;45668;-84
2023/02/08 10:05:00;;;;;;;;;35.00;27.75;;;;;4.71;49.85;102696.78;6067542;23;45945;-82
2023/02/08 10:07:28;;;;;;;;;29.25;28.25;;;;;4.74;49.81;102701.97;6067220;23;46338;-84
2023/02/08 10:09:57;;;;;;;;;32.25;27.50;;;;;4.78;49.64;102693.25;6089768;23;45560;-80
2023/02/08 10:12:45;;;;;;;;;27.75;23.75;;;;;4.82;49.09;102696.63;6089066;23;45504;-77
2023/02/08 10:15:40;;;;;;;;;35.50;28.25;;;;;4.85;49.47;102697.47;6064794;23;45875;-84
2023/02/08 10:21:54;;;;;;;;;36.25;31.75;;;;;4.91;49.21;102686.97;6182203;22;46121;-80
2023/02/08 10:24:38;;;;;;;;;30.75;24.00;;;;;4.94;48.88;102692.16;6212497;22;45583;-81
2023/02/08 10:27:16;;;;;;;;;32.50;26.25;;;;;4.98;49.21;102705.94;6211026;22;45657;-72
2023/02/08 10:29:56;;;;;;;;;24.50;21.50;;;;;5.03;49.61;102705.00;6209103;22;46358;-82
2023/02/08 10:32:34;;;;;;;;;35.00;31.50;;;;;5.08;48.93;102710.13;6208258;22;46591;-79
2023/02/08 10:38:25;;;;;;;;;31.25;28.25;;;;;5.09;48.87;102701.44;6211607;22;45680;-85
2023/02/08 10:40:56;;;;;;;;;38.25;29.75;;;;;5.18;48.23;102705.66;6218278;22;45589;-82
2023/02/08 10:43:40;;;;;;;;;37.25;27.75;;;;;5.20;48.22;102699.56;6275249;22;45947;-84
2023/02/08 10:46:29;;;;;;;;;31.50;28.25;;;;;5.24;48.47;102700.34;6276850;22;45752;-81
2023/02/08 10:49:09;;;;;;;;;28.25;25.00;;;;;5.27;48.35;102702.91;6275533;22;45443;-85
2023/02/08 10:51:37;;;;;;;;;34.50;27.75;;;;;5.25;48.62;102697.75;6275712;22;45529;-83
2023/02/08 10:54:02;;;;;;;;;31.25;28.25;;;;;5.29;48.00;102704.59;6274713;22;46670;-85
2023/02/08 10:56:36;;;;;;;;;32.25;27.00;;;;;5.40;48.16;102710.47;6273994;22;45465;-84
2023/02/08 10:59:12;;;;;;;;;37.25;29.00;;;;;5.44;48.08;102709.56;6274543;22;45513;-84
2023/02/08 11:01:38;;;;;;;;;35.50;27.25;;;;;5.45;47.66;102700.03;6273543;22;46322;-84
2023/02/08 11:04:06;;;;;;;;;30.75;27.00;;;;;5.45;47.29;102687.88;6247429;22;46375;-82
2023/02/08 11:06:31;;;;;;;;;25.25;22.25;;;;;5.52;47.03;102687.78;6273317;22;45823;-84
2023/02/08 11:08:57;;;;;;;;;31.00;23.25;;;;;5.60;46.72;102702.38;6272340;22;45548;-80
2023/02/08 11:11:28;;;;;;;;;25.50;22.50;;;;;5.62;46.85;102697.13;6273208;22;45493;-83
2023/02/08 11:14:09;;;;;;;;;33.00;27.50;;;;;5.63;46.82;102688.47;6273217;22;46138;-79
2023/02/08 11:16:37;;;;;;;;;27.00;26.75;;;;;5.70;46.76;102690.94;6272910;22;45718;-77
2023/02/08 11:19:06;;;;;;;;;36.00;30.00;;;;;5.73;46.56;102687.41;6273649;22;45455;-84
2023/02/08 11:21:35;;;;;;;;;26.00;25.25;;;;;5.77;46.25;102683.91;6272400;22;47361;-85
2023/02/08 11:24:40;;;;;;;;;28.50;22.25;;;;;5.77;46.05;102682.16;6272706;22;47085;-84
2023/02/08 11:27:28;;;;;;;;;28.00;25.75;;;;;5.79;46.03;102674.31;6273506;22;45531;-82
2023/02/08 11:30:12;;;;;;;;;29.25;24.50;;;;;5.84;45.87;102678.53;6272908;22;45856;-86
2023/02/08 11:32:38;;;;;;;;;28.50;26.00;;;;;5.87;45.36;102677.66;6273456;22;45777;-80
2023/02/08 11:35:22;;;;;;;;;29.00;24.00;;;;;5.90;45.57;102673.25;6275552;22;46136;-84
2023/02/08 11:37:47;;;;;;;;;22.25;20.25;;;;;5.94;45.37;102668.00;6279014;22;45468;-82
2023/02/08 11:40:28;;;;;;;;;25.33;23.00;;;;;5.94;45.31;102666.25;6280136;22;45456;-80
2023/02/08 11:42:54;;;;;;;;;23.25;20.25;;;;;6.01;44.94;102665.25;6277823;22;45570;-78
2023/02/08 11:45:24;;;;;;;;;25.25;22.00;;;;;6.02;45.24;102661.78;6275424;22;45645;-85
2023/02/08 11:47:50;;;;;;;;;29.75;26.50;;;;;6.08;44.59;102663.41;6274595;22;45455;-85
2023/02/08 11:50:33;;;;;;;;;38.75;27.00;;;;;6.14;45.09;102660.69;6275411;22;45459;-83
2023/02/08 11:53:01;;;;;;;;;32.75;24.25;;;;;6.16;44.84;102661.47;6274240;22;47425;-83
2023/02/08 11:55:29;;;;;;;;;32.50;25.50;;;;;6.21;44.59;102655.31;6274497;22;47246;-85
2023/02/08 11:58:18;;;;;;;;;29.25;26.25;;;;;6.20;45.22;102644.94;6274541;22;45953;-82
2023/02/08 12:00:59;;;;;;;;;26.00;23.00;;;;;6.29;44.39;102644.75;6251805;22;45871;-80
2023/02/08 12:03:32;;;;;;;;;31.50;21.25;;;;;6.27;43.42;102636.09;6281465;22;45541;-81
2023/02/08 12:06:15;;;;;;;;;26.50;23.25;;;;;6.38;43.79;102648.91;6277093;22;46413;-78
2023/02/08 12:08:56;;;;;;;;;31.00;27.50;;;;;6.41;43.81;102641.03;6277032;22;45553;-79
2023/02/08 12:11:44;;;;;;;;;24.00;21.50;;;;;6.41;43.79;102635.84;6275386;22;45635;-82
2023/02/08 12:14:09;;;;;;;;;30.25;24.75;;;;;6.47;43.91;102646.97;6272904;22;45820;-76
2023/02/08 12:16:45;;;;;;;;;28.33;24.00;;;;;6.48;43.92;102634.81;6272782;22;45949;-81
2023/02/08 12:22:39;;;;;;;;;29.75;23.75;;;;;6.60;44.11;102642.34;6272095;22;45476;-74
2023/02/08 12:25:30;;;;;;;;;35.25;28.75;;;;;6.64;44.13;102631.81;6273026;22;45539;-83
2023/02/08 12:28:23;;;;;;;;;37.75;29.00;;;;;6.67;43.34;102633.50;6271957;22;46019;-81
2023/02/08 12:31:13;;;;;;;;;28.50;24.00;;;;;6.72;43.18;102632.53;6274891;22;45592;-84
2023/02/08 12:33:42;;;;;;;;;28.50;23.00;;;;;6.74;43.28;102632.50;6275403;22;45170;-85
2023/02/08 12:42:57;;;;;;;;;35.25;29.00;;;;;6.83;43.32;102624.47;6272395;22;45630;-85
2023/02/08 12:45:44;;;;;;;;;28.75;25.25;;;;;6.85;43.33;102603.59;6272571;22;45908;-83
2023/02/08 12:48:35;;;;;;;;;33.00;28.75;;;;;6.86;43.27;102594.88;6271517;22;47049;-84
2023/02/08 12:51:34;;;;;;;;;22.75;20.75;;;;;6.88;43.32;102583.53;6146724;23;46308;-84
2023/02/08 12:54:09;;;;;;;;;29.50;27.75;;;;;6.92;43.35;102576.47;6147095;23;46002;-83
2023/02/08 12:56:40;;;;;;;;;28.50;24.25;;;;;6.96;43.39;102578.16;6146585;23;45689;-82
2023/02/08 12:59:16;;;;;;;;;30.75;25.75;;;;;6.90;43.07;102557.44;6147941;23;46455;-81
2023/02/08 13:01:50;;;;;;;;;31.25;24.50;;;;;7.02;42.75;102564.94;6148016;23;45742;-81
2023/02/08 13:04:22;;;;;;;;;29.50;25.00;;;;;7.04;42.79;102563.16;6147630;23;45929;-82
2023/02/08 13:06:54;;;;;;;;;26.75;23.00;;;;;7.07;43.10;102556.09;6148131;23;45664;-79
2023/02/08 13:09:32;;;;;;;;;32.00;26.50;;;;;7.11;42.76;102551.69;6148647;23;45522;-79
2023/02/08 13:12:18;;;;;;;;;29.25;27.50;;;;;7.12;42.77;102538.63;6148077;23;46276;-79
2023/02/08 13:14:51;;;;;;;;;30.00;24.00;;;;;7.19;42.62;102539.31;6147676;23;45663;-76
2023/02/08 13:17:28;;;;;;;;;25.50;18.75;;;;;7.21;43.24;102532.31;6146931;23;45692;-81
2023/02/08 13:23:01;;;;;;;;;26.00;24.75;;;;;7.25;42.31;102533.94;6161720;23;46333;-78
2023/02/08 13:25:35;;;;;;;;;28.75;24.50;;;;;7.24;42.28;102519.19;6178063;23;45579;-80